Dutch
Home     News     Corporate     Events & Tours     Flight ops     Crew centre      
My transavia virtual    Join us    Last logs    Who is flying    Software    Training    VRTS     
 

view flightdata
view flightplan
view OFP
view flightlog



flightdata:
pilot: Ed van der Linden
flight: TRA322
from: HEMA (Marsa Alam)
to: HEGN (Hurghada)
date: 02-01-2015
departure: 21:15z
arrival: 21:43z
duration: 0:27
aircraft: B738 (PHHSF)
distance: 112 NM
touchdown: -61 ft/m @ 131 KIAS



flightplan:
-(FPL-TRA322-IS
-B738/M-SDEEFGHIJRWXY/LB1
-HEMA2124
-N0334F160 DCT MAK V730 SOBEL DCT
-HEGN0025 HESH
-PBN/B1D1O1 DOF/150102 REG/PHHSF SEL/LSHJ CODE/4841A5 OPR/TRA RVR/200 RMK/TCAS)



operational flightplan (OFP):
DISPATCH BRIEFING
--------- --------- --------- --------- --------- --------- --------- --------- --------- ---------
PREDEPARTURE ATC CLEARANCE:
.

.
--------- --------- --------- --------- --------- --------- --------- --------- --------- ---------
OFP 1       02 JAN 15/21:09


TRA322    C/S TRA322    HEMA/RMF   HEGN/HRG            CRYZ SYS      CI 11
02 JAN 15  PH-HSF       1520/1530  1600/1555           GND DIST      106   
             TAB:       CTOT ....  STA 16:05           AIR DIST      108
                                                       AVG W/C       T004
MAXIMUM    ZFW 62731  LAW 66360   TOW 76975            AVG ISA       P20
ESTIMATED  ZFW 57489  LAW 59666   TOW 60829            F-F FACTOR     4.3
ACTUAL     ZFW......  LAW......  TOW.......

--------- --------- --------- --------- --------- --------- --------- --------- --------- ---------
TRIP        1163   0025           .....  .....
CONT         186   0005           .....  .....
ALTN         874   0018  HESH     .....  .....  ....
FINAL       1117   0030           .....  .....
ADDNL          0   0000           .....  .....
TANKERING                  
PLN TOF     3340   0118
DIFF        ....   ....
PLN TOF     ....   ....  (CORRECTED)   
EXTRA          0   ....                  
TOF         3340                    
TAXI         200                      
BLOCK       3540        

--------- --------- --------- --------- --------- --------- --------- --------- --------- ---------

REASON EXTRA FUEL     MATRIX FUEL: ...
O ECN-ECONOMICAL      O TMP-TEMPORARILY      O ATC-AIR TRAFFIC CONTROL
O FOB-FUEL ON BOARD   O MSC-MISCELLANEOUS    O FPC-FLIGHT PLN CORR
O WXR-WEATHER         O TEC_TECHNICAL        ACT.CI/CRZ USED: . . .

--------- --------- --------- --------- --------- --------- --------- --------- --------- ---------
                                                  00 MIN HOLD HEGN: 0 EXTRA


--------- --------- --------- --------- --------- --------- --------- --------- --------- ---------
COMMANDERS NAME:                                  SIGNATURE:

--------- --------- --------- --------- --------- --------- --------- --------- --------- ---------
FROM:   HEMA ELEV 251         TO: HEGN ELEV 52     ALTN: HESH ELEV 143
ATC C/S      : C/S TRA322                AVG ISA  : P20
CO-ROUTE     : ---                       AVG TT   :
FMC-RES      : 1991                      AVG W/C  : T004
CRZ ALT      : FL160
CRZ SYS      : CI 11


           HEMA/33  N0334F160 DCT MAK V730 SOBEL DCT HEGN/34

--------- --------- --------- --------- --------- --------- --------- --------- --------- ---------


RVSM ALT CHECK:  FL:...... LEFT: ...... STBY: ...... RIGHT: ......

--------- --------- --------- --------- --------- --------- --------- --------- --------- ---------
ALTERNATE SUMMARY
--------- --------- --------- --------- --------- --------- --------- --------- --------- ---------

     ALTN     DIST  LVL      WC    TIME   FUEL  VIA
     HESH/04R   73 FL120    T004   0118    874  HGD R650 SHM
INFO/HELX/02   120 FL180    H009   0127   1271  HGD DCT LXR
                                          P397
INFO/HEMA/33   145 FL230    H007   0130   1415  SOBE1A SOBEL V730 MAK
                                          P541
INFO/HECA/05R  238 FL320       0   0142   1968  SOKOT DCT SEMRU A727 SOLAM
                                          P1094


-(FPL-TRA322-IS
-B738/M-SDEEFGHIJRWXY/LB1
-HEMA2124
-N0334F160 DCT MAK V730 SOBEL DCT
-HEGN0025 HESH
-PBN/B1D1O1 DOF/150102 REG/PHHSF SEL/LSHJ CODE/4841A5 OPR/TRA RVR/200 RMK/TCAS)

WEATHER BRIEFING - GENERATED 02 JAN 2015 21:09 UTC
--------------------------------------------------------------------------------

HEMA HEGN HESH HELX HEMA HECA

--------------------------------------------------------------------------------
ORIGIN: HEMA ()
--------------------------------------------------------------------------------
HEMA 022000Z 31013KT 5000 NSC 18/06 Q1020 BECMG 6000



--------------------------------------------------------------------------------
DESTINATION: HEGN ()
--------------------------------------------------------------------------------
HEGN 022000Z 31010KT CAVOK 14/03 Q1020 NOSIG



--------------------------------------------------------------------------------
ALTERNATE: HESH ()
--------------------------------------------------------------------------------
HESH 022000Z 35012KT CAVOK 19/07 Q1019 NOSIG



--------------------------------------------------------------------------------
ALTERNATE: HELX ()
--------------------------------------------------------------------------------
HELX 022000Z 20002KT 8000 NSC 13/03 Q1020 NOSIG



--------------------------------------------------------------------------------
ALTERNATE: HEMA ()
--------------------------------------------------------------------------------
HEMA 022000Z 31013KT 5000 NSC 18/06 Q1020 BECMG 6000



--------------------------------------------------------------------------------
ALTERNATE: HECA ()
--------------------------------------------------------------------------------
HECA 022030Z 31004KT CAVOK 13/02 Q1024 NOSIG







flightlog:
Pilot : Ed van der  Linden
Flight: TRA322
From  : HEMA 
To    : HEGN 

[FLIGHTLOG] 1.4.2
02-01-2015 21:10:49z, logging started
02-01-2015 21:15:53z, parking brake released
02-01-2015 21:15:54z, flaps set to 25%
02-01-2015 21:15:55z, flaps set to 0%
02-01-2015 21:16:02z, flaps set to 13%
02-01-2015 21:16:10z, flaps set to 25%
02-01-2015 21:16:14z, flaps set to 38%
02-01-2015 21:18:47z, take-off at 150 KIAS
02-01-2015 21:18:47z, pos report: 150 KIAS, 00 261 ft, heading 329, winds 310 @ 13 kts
02-01-2015 21:18:47z, flying online @ VATSIM (TRA322)
02-01-2015 21:18:47z, position: unknown
02-01-2015 21:18:50z, retracted gear at 162 KIAS and 44 ft AGL
02-01-2015 21:19:54z, flaps set to 25%
02-01-2015 21:19:55z, flaps set to 38%
02-01-2015 21:19:59z, flaps set to 25%
02-01-2015 21:20:02z, flaps set to 13%
02-01-2015 21:20:11z, flaps set to 0%
02-01-2015 21:25:48z, pos report: 300 KIAS, 16 200 ft, heading 337, winds 251 @ 46 kts
02-01-2015 21:38:22z, deployed spoilers
02-01-2015 21:39:15z, flaps set to 13%
02-01-2015 21:39:16z, flaps set to 0%
02-01-2015 21:39:21z, lowered gear at 229 KIAS and 2044 ft AGL
02-01-2015 21:39:24z, flaps set to 13%
02-01-2015 21:39:31z, flaps set to 25%
02-01-2015 21:39:36z, flaps set to 38%
02-01-2015 21:39:40z, flaps set to 50%
02-01-2015 21:40:36z, flaps set to 75%
02-01-2015 21:40:41z, retracted spoilers
02-01-2015 21:40:44z, flaps set to 87%
02-01-2015 21:40:49z, pos report: 159 KIAS, 00 491 ft, heading 342, winds 314 @ 10 kts
02-01-2015 21:41:38z, touchdown: -61ft/m at 131 KIAS
02-01-2015 21:41:38z, pos report: 131 KIAS, 00 061 ft, heading 343, winds 310 @ 10 kts
02-01-2015 21:41:38z, flying online @ VATSIM (TRA322)
02-01-2015 21:41:38z, position: unknown
02-01-2015 21:41:40z, deployed spoilers
02-01-2015 21:42:00z, retracted spoilers
02-01-2015 21:42:07z, flaps set to 75%
02-01-2015 21:42:12z, flaps set to 62%
02-01-2015 21:42:14z, flaps set to 50%
02-01-2015 21:42:17z, flaps set to 38%
02-01-2015 21:42:21z, flaps set to 25%
02-01-2015 21:42:26z, flaps set to 13%
02-01-2015 21:42:33z, flaps set to 0%
02-01-2015 21:43:29z, parking brake set
02-01-2015 21:43:39z, logging ended

©2009-2020, transavia virtual. All rights reserved. This website is only meant for simulation purposes.
This website is not owned by transavia, nor is transavia responsible for the content of this website.